NCE weather

Nice-Côte d'Azur Airport
Nice, Provence-Alpes-Côte-d'Azur, France

Public forecast

Using degrees Celsius for public forecast. Weather courtesy of forecast.io.

Current aviation weather report (METAR) for Nice-Côte d'Azur Airport

Retrieved 2019/10/22 09:30 UTC (16 minutes ago):

LFMN 220930Z 06018KT 9999 BKN100 OVC230 22/18 Q1020 NOSIG

Aviation forecast (TAF) for Nice-Côte d'Azur Airport

Retrieved 2019/10/22 09:42 UTC (4 minutes ago):

TAF TAF LFMN 220800Z 2209/2315 07020KT CAVOK TEMPO 2209/2213 08020G30KT TEMPO 2312/2315 07025G35KT